createdAt,value
2023-07-14T00:04:10.238Z,60.36
2023-07-14T00:08:30.394Z,60.14
2023-07-14T00:12:47.268Z,60.21
2023-07-14T00:17:05.771Z,60.31
2023-07-14T00:21:24.990Z,60.54
2023-07-14T00:25:41.820Z,61.04
2023-07-14T00:29:58.646Z,60.76
2023-07-14T00:34:14.825Z,61.00
2023-07-14T00:38:31.234Z,61.08
2023-07-14T00:42:54.762Z,62.07
2023-07-14T00:47:27.706Z,62.18
2023-07-14T00:51:44.623Z,61.88
2023-07-14T00:56:13.863Z,61.64
2023-07-14T01:00:32.136Z,61.77
2023-07-14T01:04:52.834Z,61.72
2023-07-14T01:09:12.879Z,62.25
2023-07-14T01:13:30.922Z,62.13
2023-07-14T01:17:48.820Z,62.30
2023-07-14T01:22:23.324Z,62.46
2023-07-14T01:26:59.282Z,62.47
2023-07-14T01:31:22.598Z,62.69
2023-07-14T01:35:43.063Z,62.64
2023-07-14T01:39:59.690Z,62.07
2023-07-14T01:44:19.148Z,62.51
2023-07-14T01:49:01.016Z,62.02
2023-07-14T01:53:24.841Z,62.00
2023-07-14T01:57:41.929Z,62.38
2023-07-14T02:02:03.320Z,61.96
2023-07-14T02:06:19.615Z,61.99
2023-07-14T02:10:35.910Z,61.78
2023-07-14T02:15:07.796Z,61.51
2023-07-14T02:19:26.063Z,62.21
2023-07-14T02:23:43.251Z,62.51
2023-07-14T02:27:59.543Z,62.99
2023-07-14T02:32:21.735Z,63.26
2023-07-14T02:37:00.749Z,62.83
2023-07-14T02:41:27.320Z,62.97
2023-07-14T02:45:59.739Z,62.59
2023-07-14T02:50:15.985Z,63.21
2023-07-14T02:54:32.163Z,62.78
2023-07-14T02:58:51.407Z,63.32
2023-07-14T03:03:07.902Z,63.47
2023-07-14T03:07:24.230Z,63.94
2023-07-14T03:11:40.429Z,64.93
2023-07-14T03:15:56.693Z,64.49
2023-07-14T03:20:15.439Z,64.03
2023-07-14T03:24:31.740Z,64.22
2023-07-14T03:28:47.985Z,63.72
2023-07-14T03:33:04.273Z,65.42
2023-07-14T03:37:20.648Z,64.79
2023-07-14T03:41:36.869Z,64.80
2023-07-14T03:45:53.159Z,64.59
2023-07-14T03:50:12.860Z,64.01
2023-07-14T03:54:29.096Z,63.64
2023-07-14T03:58:45.357Z,63.83
2023-07-14T04:03:01.918Z,63.90
2023-07-14T04:07:18.252Z,63.76
2023-07-14T04:11:35.862Z,63.42
2023-07-14T04:15:52.071Z,63.80
2023-07-14T04:20:08.752Z,63.56
2023-07-14T04:24:24.949Z,63.59
2023-07-14T04:28:41.090Z,63.30
2023-07-14T04:32:59.386Z,63.38
2023-07-14T04:37:15.590Z,62.92
2023-07-14T04:41:32.406Z,62.69
2023-07-14T04:45:50.841Z,62.78
2023-07-14T04:50:08.510Z,63.46
2023-07-14T04:54:25.400Z,63.45
2023-07-14T04:58:41.714Z,63.16
2023-07-14T05:02:58.317Z,62.72
2023-07-14T05:07:14.783Z,62.27
2023-07-14T05:11:31.026Z,62.03
2023-07-14T05:15:48.439Z,61.67
2023-07-14T05:20:07.433Z,61.27
2023-07-14T05:24:23.844Z,60.40
2023-07-14T05:28:40.333Z,60.25
2023-07-14T05:32:56.587Z,60.06
2023-07-14T05:37:12.929Z,59.74
2023-07-14T05:41:29.091Z,58.97
2023-07-14T05:45:48.426Z,58.96
2023-07-14T05:50:06.740Z,58.58
2023-07-14T05:54:23.211Z,58.01
2023-07-14T05:58:39.799Z,57.07
2023-07-14T06:02:56.136Z,56.76
2023-07-14T06:07:13.043Z,56.68
2023-07-14T06:11:29.268Z,57.05
2023-07-14T06:15:51.583Z,57.31
2023-07-14T06:20:08.604Z,56.32
2023-07-14T06:24:25.511Z,55.79
2023-07-14T06:28:42.487Z,55.54
2023-07-14T06:32:59.051Z,55.21
2023-07-14T06:37:15.244Z,55.30
2023-07-14T06:41:31.555Z,54.68
2023-07-14T06:45:51.183Z,55.53
2023-07-14T06:50:07.772Z,55.25
2023-07-14T06:54:23.997Z,55.04
2023-07-14T06:58:40.188Z,55.21
2023-07-14T07:02:56.381Z,53.79
2023-07-14T07:07:12.523Z,53.49
2023-07-14T07:11:28.703Z,54.54
2023-07-14T07:15:46.842Z,53.49
2023-07-14T07:20:04.646Z,53.54
2023-07-14T07:24:20.863Z,51.11
2023-07-14T07:28:37.323Z,50.04
2023-07-14T07:32:53.651Z,49.85
2023-07-14T07:37:10.238Z,50.43
2023-07-14T07:41:27.726Z,48.35
2023-07-14T07:45:49.931Z,47.63
2023-07-14T07:50:06.830Z,47.79
2023-07-14T07:54:23.044Z,48.12
2023-07-14T07:58:39.177Z,46.94
2023-07-14T08:02:55.561Z,46.64
2023-07-14T08:07:14.676Z,45.63
2023-07-14T08:11:31.640Z,45.41
2023-07-14T08:15:49.027Z,44.19
2023-07-14T08:20:09.172Z,44.66
2023-07-14T08:24:25.422Z,43.61
2023-07-14T08:28:42.844Z,43.23
2023-07-14T08:32:59.637Z,43.56
2023-07-14T08:37:15.955Z,41.00
2023-07-14T08:41:35.320Z,40.61
2023-07-14T08:46:15.941Z,40.36
2023-07-14T08:50:33.704Z,39.71
2023-07-14T08:55:11.907Z,37.71
2023-07-14T08:59:33.940Z,39.13
2023-07-14T09:03:55.279Z,38.52
2023-07-14T09:08:12.561Z,39.00
2023-07-14T09:12:55.219Z,37.44
2023-07-14T09:17:44.937Z,39.09
2023-07-14T09:22:01.119Z,38.64
2023-07-14T09:26:36.337Z,38.48
2023-07-14T09:30:54.231Z,37.48
2023-07-14T09:35:21.517Z,38.58
2023-07-14T09:39:43.491Z,39.84
2023-07-14T09:44:02.625Z,37.23
2023-07-14T09:48:31.534Z,36.57
2023-07-14T09:52:57.012Z,35.21
2023-07-14T09:57:25.069Z,36.06
2023-07-14T10:02:01.248Z,36.75
2023-07-14T10:06:26.856Z,37.22
2023-07-14T10:10:44.561Z,36.24
2023-07-14T10:15:01.998Z,34.96
2023-07-14T10:19:20.564Z,35.83
2023-07-14T10:23:37.041Z,34.45
2023-07-14T10:28:11.655Z,34.21
2023-07-14T10:32:53.359Z,32.71
2023-07-14T10:37:40.600Z,33.22
2023-07-14T10:41:58.356Z,35.37
2023-07-14T10:46:22.526Z,32.93
2023-07-14T10:50:54.296Z,32.00
2023-07-14T10:55:32.640Z,33.86
2023-07-14T10:59:55.895Z,31.48
2023-07-14T11:04:35.712Z,31.01
2023-07-14T11:08:57.365Z,31.74
2023-07-14T11:13:31.506Z,31.87
2023-07-14T11:18:19.643Z,31.27
2023-07-14T11:22:48.476Z,30.45
2023-07-14T11:27:29.934Z,30.02
2023-07-14T11:31:53.923Z,28.57
2023-07-14T11:36:20.873Z,28.74
2023-07-14T11:40:41.756Z,28.32
2023-07-14T11:45:01.483Z,30.22
2023-07-14T11:49:38.505Z,27.30
2023-07-14T11:54:14.392Z,27.61
2023-07-14T11:58:32.243Z,27.80
2023-07-14T12:02:53.169Z,27.31
2023-07-14T12:07:24.054Z,26.73
2023-07-14T12:11:42.750Z,26.91
2023-07-14T12:16:02.651Z,27.94
2023-07-14T12:20:47.908Z,26.48
2023-07-14T12:25:21.072Z,26.90
2023-07-14T12:29:52.129Z,26.52
2023-07-14T12:34:33.418Z,26.52
2023-07-14T12:38:53.157Z,25.59
2023-07-14T12:43:29.300Z,25.19
2023-07-14T12:47:50.089Z,28.49
2023-07-14T12:52:15.204Z,27.03
2023-07-14T12:56:34.635Z,27.17
2023-07-14T13:00:58.628Z,27.48
2023-07-14T13:05:18.582Z,28.44
2023-07-14T13:09:35.581Z,27.71
2023-07-14T13:13:57.268Z,24.82
2023-07-14T13:18:33.447Z,25.32
2023-07-14T13:23:12.605Z,24.91
2023-07-14T13:27:28.880Z,23.77
2023-07-14T13:31:46.581Z,25.95
2023-07-14T13:36:08.963Z,25.60
2023-07-14T13:40:28.056Z,24.48
2023-07-14T13:44:51.423Z,24.18
2023-07-14T13:49:09.272Z,23.56
2023-07-14T13:53:25.941Z,24.18
2023-07-14T13:57:45.009Z,24.16
2023-07-14T14:02:25.644Z,23.39
2023-07-14T14:06:43.173Z,23.57
2023-07-14T14:10:59.493Z,24.25
2023-07-14T14:15:20.715Z,25.21
2023-07-14T14:19:37.103Z,24.52
2023-07-14T14:23:53.453Z,26.13
2023-07-14T14:28:10.310Z,27.05
2023-07-14T14:32:26.693Z,26.94
2023-07-14T14:36:43.024Z,26.49
2023-07-14T14:41:01.597Z,25.82
2023-07-14T14:45:23.848Z,26.78
2023-07-14T14:49:40.253Z,26.55
2023-07-14T14:53:56.715Z,27.54
2023-07-14T14:58:27.216Z,29.60
2023-07-14T15:02:43.528Z,32.18
2023-07-14T15:06:59.957Z,29.88
2023-07-14T15:11:19.199Z,26.95
2023-07-14T15:15:37.665Z,25.07
2023-07-14T15:19:54.336Z,25.93
2023-07-14T15:24:13.468Z,27.85
2023-07-14T15:28:29.842Z,27.49
2023-07-14T15:32:46.094Z,25.97
2023-07-14T15:37:02.511Z,28.42
2023-07-14T15:41:22.556Z,30.01
2023-07-14T15:45:38.751Z,27.88
2023-07-14T15:49:55.252Z,26.47
2023-07-14T15:54:27.485Z,27.20
2023-07-14T15:58:43.831Z,26.99
2023-07-14T16:03:00.993Z,29.52
2023-07-14T16:07:18.701Z,28.31
2023-07-14T16:11:36.662Z,27.79
2023-07-14T16:15:54.241Z,28.00
2023-07-14T16:20:19.041Z,29.43
2023-07-14T16:24:38.931Z,29.00
2023-07-14T16:28:56.456Z,28.73
2023-07-14T16:33:14.242Z,28.35
2023-07-14T16:37:31.992Z,28.93
2023-07-14T16:41:48.634Z,29.94
2023-07-14T16:46:05.327Z,30.54
2023-07-14T16:50:23.554Z,30.82
2023-07-14T16:54:39.898Z,30.30
2023-07-14T16:58:56.387Z,30.07
2023-07-14T17:03:29.707Z,29.36
2023-07-14T17:07:46.522Z,30.26
2023-07-14T17:12:03.256Z,31.55
2023-07-14T17:16:20.128Z,33.09
2023-07-14T17:20:36.653Z,35.56
2023-07-14T17:24:53.896Z,37.00
2023-07-14T17:29:18.221Z,38.25
2023-07-14T17:33:35.515Z,39.27
2023-07-14T17:37:56.449Z,40.16
2023-07-14T17:42:19.146Z,41.13
2023-07-14T17:46:35.495Z,41.47
2023-07-14T17:50:54.083Z,42.42
2023-07-14T17:55:19.536Z,42.47
2023-07-14T17:59:36.091Z,41.74
2023-07-14T18:03:52.525Z,42.15
2023-07-14T18:08:11.561Z,42.02
2023-07-14T18:12:29.820Z,42.44
2023-07-14T18:16:46.436Z,43.24
2023-07-14T18:21:03.650Z,43.05
2023-07-14T18:25:25.209Z,42.89
2023-07-14T18:29:42.150Z,43.60
2023-07-14T18:33:58.332Z,44.10
2023-07-14T18:38:17.420Z,44.98
2023-07-14T18:42:33.571Z,44.98
2023-07-14T18:46:50.306Z,46.22
2023-07-14T18:51:22.598Z,46.27
2023-07-14T18:55:42.814Z,45.26
2023-07-14T18:59:59.034Z,45.75
2023-07-14T19:04:20.362Z,46.33
2023-07-14T19:08:36.615Z,46.70
2023-07-14T19:12:52.888Z,46.00
2023-07-14T19:17:15.349Z,45.41
2023-07-14T19:21:33.117Z,45.74
2023-07-14T19:25:49.328Z,47.07
2023-07-14T19:30:13.534Z,47.70
2023-07-14T19:34:37.937Z,49.06
2023-07-14T19:38:54.226Z,49.24
2023-07-14T19:43:18.924Z,49.91
2023-07-14T19:47:35.196Z,50.20
2023-07-14T19:51:56.617Z,50.64
2023-07-14T19:56:13.047Z,50.51
2023-07-14T20:00:32.364Z,50.17
2023-07-14T20:04:48.502Z,49.81
2023-07-14T20:09:07.705Z,50.65
2023-07-14T20:13:26.647Z,50.55
2023-07-14T20:17:42.970Z,50.07
2023-07-14T20:22:01.026Z,49.22
2023-07-14T20:26:20.163Z,49.05
2023-07-14T20:30:36.553Z,49.69
2023-07-14T20:35:00.843Z,48.09
2023-07-14T20:39:21.716Z,49.24
2023-07-14T20:43:39.229Z,49.52
2023-07-14T20:47:56.808Z,49.33
2023-07-14T20:52:24.184Z,50.12
2023-07-14T20:56:40.850Z,49.92
2023-07-14T21:00:58.394Z,50.58
2023-07-14T21:05:14.938Z,51.11
2023-07-14T21:09:31.156Z,52.00
2023-07-14T21:13:53.057Z,52.37
2023-07-14T21:18:13.714Z,53.24
2023-07-14T21:22:30.536Z,53.82
2023-07-14T21:26:47.053Z,53.82
2023-07-14T21:31:06.518Z,54.07
2023-07-14T21:35:23.055Z,54.99
2023-07-14T21:39:39.531Z,54.47
2023-07-14T21:43:56.686Z,53.18
2023-07-14T21:48:23.775Z,52.85
2023-07-14T21:52:40.049Z,52.73
2023-07-14T21:56:56.308Z,51.84
2023-07-14T22:01:34.489Z,51.98
2023-07-14T22:05:55.321Z,52.08
2023-07-14T22:10:18.161Z,52.41
2023-07-14T22:14:34.516Z,52.53
2023-07-14T22:18:51.167Z,53.44
2023-07-14T22:23:09.302Z,53.66
2023-07-14T22:27:25.730Z,52.95
2023-07-14T22:31:42.263Z,52.61
2023-07-14T22:35:59.978Z,53.64
2023-07-14T22:40:17.589Z,54.26
2023-07-14T22:44:33.862Z,54.37
2023-07-14T22:48:50.362Z,55.12
2023-07-14T22:53:07.059Z,53.57
2023-07-14T22:57:23.353Z,53.55
2023-07-14T23:01:39.793Z,54.10
2023-07-14T23:06:00.877Z,53.84
2023-07-14T23:10:17.207Z,53.97
2023-07-14T23:14:33.632Z,53.92
2023-07-14T23:18:49.902Z,53.78
2023-07-14T23:23:10.890Z,53.67
2023-07-14T23:27:27.231Z,53.70
2023-07-14T23:31:45.942Z,53.97
2023-07-14T23:36:02.180Z,54.66
2023-07-14T23:40:19.873Z,54.72
2023-07-14T23:44:36.110Z,54.73
2023-07-14T23:48:55.401Z,54.79
2023-07-14T23:53:35.808Z,55.45
2023-07-14T23:57:53.421Z,55.30
